YUPH weather

Upper Horton Wyl Airport
New South Wales, Australia

Public forecast

Using degrees Celsius for public forecast. Weather courtesy of forecast.io.

METAR (pilot weather report)

Closest report is Narrabri Airport, 32.6 nm (60.4 km) WSW. Retrieved 2019/04/22 22:00 UTC (11 minutes ago):

YNBR 222200Z AUTO 16007KT 9999 // NCD 20/11 Q1024

TAF (pilot weather forecast)

Closest forecast is Tamworth Airport, 63.1 nm (116.8 km) SSE. Retrieved 2019/04/22 18:36 UTC (4 hours ago):

TAF TAF YSTW 221650Z 2218/2312 09008KT CAVOK